createdAt,value
2018-02-04T00:00:29.717Z,75.30
2018-02-04T00:02:57.330Z,75.22
2018-02-04T00:05:24.830Z,75.36
2018-02-04T00:07:52.340Z,75.79
2018-02-04T00:10:20.100Z,75.50
2018-02-04T00:12:47.625Z,75.30
2018-02-04T00:15:15.140Z,75.79
2018-02-04T00:17:42.687Z,74.78
2018-02-04T00:20:10.268Z,75.16
2018-02-04T00:22:39.278Z,75.11
2018-02-04T00:25:06.895Z,75.05
2018-02-04T00:27:34.488Z,74.84
2018-02-04T00:30:02.016Z,74.35
2018-02-04T00:32:29.548Z,74.53
2018-02-04T00:34:57.049Z,74.31
2018-02-04T00:37:24.582Z,73.94
2018-02-04T00:39:52.390Z,73.71
2018-02-04T00:42:19.898Z,73.40
2018-02-04T00:44:47.491Z,72.57
2018-02-04T00:47:14.995Z,72.03
2018-02-04T00:49:42.584Z,71.82
2018-02-04T00:52:10.149Z,71.72
2018-02-04T00:54:37.672Z,72.10
2018-02-04T00:57:05.203Z,71.71
2018-02-04T00:59:32.775Z,71.97
2018-02-04T01:02:00.298Z,71.80
2018-02-04T01:04:28.258Z,70.81
2018-02-04T01:06:55.804Z,70.19
2018-02-04T01:09:23.311Z,70.40
2018-02-04T01:11:50.815Z,70.50
2018-02-04T01:14:18.436Z,70.51
2018-02-04T01:16:46.058Z,71.23
2018-02-04T01:19:13.615Z,71.47
2018-02-04T01:21:41.151Z,72.01
2018-02-04T01:24:08.752Z,72.49
2018-02-04T01:26:36.297Z,70.63
2018-02-04T01:29:03.830Z,69.66
2018-02-04T01:31:31.372Z,69.56
2018-02-04T01:33:58.900Z,70.29
2018-02-04T01:36:26.437Z,71.12
2018-02-04T01:38:53.965Z,71.76
2018-02-04T01:41:21.478Z,71.68
2018-02-04T01:43:49.048Z,72.25
2018-02-04T01:46:16.557Z,72.36
2018-02-04T01:48:44.084Z,72.82
2018-02-04T01:51:11.696Z,72.97
2018-02-04T01:53:39.200Z,72.56
2018-02-04T01:56:06.703Z,72.84
2018-02-04T01:58:34.259Z,71.45
2018-02-04T02:01:01.761Z,71.16
2018-02-04T02:03:29.282Z,71.46
2018-02-04T02:05:56.852Z,71.47
2018-02-04T02:08:24.376Z,71.18
2018-02-04T02:10:51.985Z,70.62
2018-02-04T02:13:19.509Z,71.10
2018-02-04T02:15:47.024Z,71.24
2018-02-04T02:18:14.560Z,71.47
2018-02-04T02:20:42.067Z,71.36
2018-02-04T02:23:09.577Z,71.50
2018-02-04T02:25:37.073Z,71.39
2018-02-04T02:28:04.658Z,71.36
2018-02-04T02:30:32.181Z,71.20
2018-02-04T02:32:59.709Z,70.38
2018-02-04T02:35:27.458Z,70.58
2018-02-04T02:37:55.017Z,70.35
2018-02-04T02:40:22.517Z,70.14
2018-02-04T02:42:50.119Z,69.91
2018-02-04T02:45:17.620Z,70.10
2018-02-04T02:47:45.165Z,70.54
2018-02-04T02:50:12.693Z,71.08
2018-02-04T02:52:40.197Z,71.47
2018-02-04T02:55:07.784Z,71.26
2018-02-04T02:57:35.288Z,70.36
2018-02-04T03:00:02.817Z,70.44
2018-02-04T03:02:30.608Z,71.20
2018-02-04T03:04:58.129Z,70.13
2018-02-04T03:07:25.716Z,68.96
2018-02-04T03:09:53.258Z,69.13
2018-02-04T03:12:20.827Z,69.12
2018-02-04T03:14:48.372Z,69.55
2018-02-04T03:17:15.873Z,69.81
2018-02-04T03:19:43.402Z,70.09
2018-02-04T03:22:10.964Z,70.53
2018-02-04T03:24:38.504Z,70.46
2018-02-04T03:27:06.049Z,69.69
2018-02-04T03:29:33.652Z,69.73
2018-02-04T03:32:01.201Z,69.67
2018-02-04T03:34:28.725Z,69.76
2018-02-04T03:36:56.316Z,70.58
2018-02-04T03:39:23.849Z,70.42
2018-02-04T03:41:51.455Z,71.06
2018-02-04T03:44:18.998Z,71.30
2018-02-04T03:46:46.555Z,71.80
2018-02-04T03:49:14.118Z,72.16
2018-02-04T03:51:41.679Z,72.16
2018-02-04T03:54:09.241Z,72.51
2018-02-04T03:56:36.741Z,72.48
2018-02-04T03:59:04.269Z,72.86
2018-02-04T04:01:31.786Z,71.53
2018-02-04T04:03:59.294Z,71.91
2018-02-04T04:06:26.949Z,72.20
2018-02-04T04:08:54.512Z,72.39
2018-02-04T04:11:22.014Z,72.54
2018-02-04T04:13:49.533Z,72.57
2018-02-04T04:16:17.057Z,72.44
2018-02-04T04:18:44.607Z,72.81
2018-02-04T04:21:12.140Z,72.81
2018-02-04T04:23:39.721Z,72.73
2018-02-04T04:26:07.241Z,73.04
2018-02-04T04:31:01.734Z,73.51
2018-02-04T04:33:29.275Z,73.39
2018-02-04T04:35:56.845Z,73.50
2018-02-04T04:38:24.340Z,74.00
2018-02-04T04:40:51.944Z,74.23
2018-02-04T04:43:19.476Z,74.27
2018-02-04T04:45:46.984Z,74.64
2018-02-04T04:48:14.540Z,74.93
2018-02-04T04:50:42.294Z,75.14
2018-02-04T04:53:09.817Z,75.34
2018-02-04T04:55:37.321Z,75.78
2018-02-04T04:58:04.897Z,75.92
2018-02-04T05:00:32.438Z,75.97
2018-02-04T05:02:59.933Z,75.95
2018-02-04T05:05:27.606Z,75.57
2018-02-04T05:07:55.111Z,75.93
2018-02-04T05:10:22.823Z,75.88
2018-02-04T05:12:50.497Z,75.99
2018-02-04T05:15:18.017Z,76.13
2018-02-04T05:17:45.544Z,76.33
2018-02-04T05:20:13.301Z,76.64
2018-02-04T05:22:40.809Z,76.90
2018-02-04T05:25:08.307Z,77.06
2018-02-04T05:27:35.844Z,77.01
2018-02-04T05:30:03.381Z,77.17
2018-02-04T05:32:30.891Z,77.52
2018-02-04T05:34:58.454Z,77.09
2018-02-04T05:37:26.017Z,77.27
2018-02-04T05:39:53.514Z,77.25
2018-02-04T05:42:21.045Z,77.22
2018-02-04T05:44:48.546Z,76.90
2018-02-04T05:47:16.112Z,76.21
2018-02-04T05:49:46.487Z,76.20
2018-02-04T05:52:14.044Z,76.51
2018-02-04T05:54:41.799Z,76.39
2018-02-04T05:57:09.298Z,76.67
2018-02-04T05:59:36.829Z,76.72
2018-02-04T06:02:04.375Z,76.86
2018-02-04T06:04:31.905Z,76.90
2018-02-04T06:06:59.420Z,76.75
2018-02-04T06:09:26.948Z,76.76
2018-02-04T06:11:54.465Z,76.84
2018-02-04T06:14:21.999Z,76.91
2018-02-04T06:16:49.626Z,76.90
2018-02-04T06:19:17.125Z,77.24
2018-02-04T06:21:44.652Z,77.16
2018-02-04T06:24:12.193Z,77.20
2018-02-04T06:26:39.729Z,77.00
2018-02-04T06:29:07.333Z,77.06
2018-02-04T06:31:34.900Z,77.36
2018-02-04T06:34:02.664Z,77.66
2018-02-04T06:36:30.204Z,78.14
2018-02-04T06:38:57.712Z,77.46
2018-02-04T06:41:25.340Z,77.13
2018-02-04T06:43:52.882Z,77.14
2018-02-04T06:46:20.435Z,77.15
2018-02-04T06:48:47.962Z,76.82
2018-02-04T06:51:15.560Z,76.30
2018-02-04T06:53:43.087Z,76.64
2018-02-04T06:56:10.625Z,76.43
2018-02-04T06:58:38.171Z,76.74
2018-02-04T07:01:05.725Z,76.84
2018-02-04T07:03:33.452Z,76.23
2018-02-04T07:06:00.960Z,76.63
2018-02-04T07:08:28.597Z,76.95
2018-02-04T07:10:56.136Z,77.00
2018-02-04T07:13:23.646Z,76.64
2018-02-04T07:15:51.285Z,76.44
2018-02-04T07:18:18.797Z,76.41
2018-02-04T07:20:46.314Z,76.46
2018-02-04T07:23:14.030Z,76.32
2018-02-04T07:25:41.525Z,76.28
2018-02-04T07:28:09.020Z,76.40
2018-02-04T07:30:36.637Z,76.15
2018-02-04T07:33:04.188Z,76.29
2018-02-04T07:35:31.844Z,75.93
2018-02-04T07:37:59.376Z,76.12
2018-02-04T07:40:26.901Z,76.14
2018-02-04T07:42:54.456Z,76.45
2018-02-04T07:45:22.031Z,76.33
2018-02-04T07:47:49.557Z,76.55
2018-02-04T07:50:17.112Z,76.07
2018-02-04T07:52:44.753Z,76.21
2018-02-04T07:55:12.340Z,76.35
2018-02-04T07:57:39.870Z,76.48
2018-02-04T08:00:07.423Z,76.65
2018-02-04T08:02:34.948Z,76.64
2018-02-04T08:05:02.561Z,76.34
2018-02-04T08:07:30.086Z,76.03
2018-02-04T08:09:57.685Z,75.95
2018-02-04T08:12:25.220Z,75.80
2018-02-04T08:14:52.725Z,75.82
2018-02-04T08:17:20.362Z,76.10
2018-02-04T08:19:47.873Z,75.86
2018-02-04T08:22:15.397Z,76.77
2018-02-04T08:24:42.927Z,75.31
2018-02-04T08:27:10.505Z,75.28
2018-02-04T08:29:38.014Z,75.17
2018-02-04T08:32:05.547Z,74.68
2018-02-04T08:34:33.561Z,74.46
2018-02-04T08:37:01.461Z,74.21
2018-02-04T08:39:28.965Z,74.13
2018-02-04T08:41:56.496Z,73.91
2018-02-04T08:44:24.031Z,73.71
2018-02-04T08:46:51.537Z,73.52
2018-02-04T08:49:19.147Z,73.47
2018-02-04T08:51:46.688Z,73.34
2018-02-04T08:54:14.260Z,73.01
2018-02-04T08:56:41.774Z,73.02
2018-02-04T08:59:09.290Z,72.49
2018-02-04T09:01:36.863Z,72.31
2018-02-04T09:04:04.389Z,72.54
2018-02-04T09:06:31.939Z,72.06
2018-02-04T09:08:59.494Z,72.15
2018-02-04T09:11:27.034Z,71.55
2018-02-04T09:13:54.721Z,71.30
2018-02-04T09:16:22.257Z,70.80
2018-02-04T09:18:49.769Z,70.98
2018-02-04T09:21:17.317Z,70.66
2018-02-04T09:23:45.058Z,70.46
2018-02-04T09:26:12.622Z,70.31
2018-02-04T09:28:40.197Z,69.73
2018-02-04T09:31:07.777Z,69.65
2018-02-04T09:33:35.404Z,69.31
2018-02-04T09:36:02.947Z,69.04
2018-02-04T09:38:31.377Z,68.85
2018-02-04T09:40:59.106Z,69.18
2018-02-04T09:43:26.632Z,69.29
2018-02-04T09:45:54.223Z,68.95
2018-02-04T09:48:21.753Z,68.67
2018-02-04T09:50:49.337Z,68.34
2018-02-04T09:53:16.878Z,68.34
2018-02-04T09:55:44.416Z,68.07
2018-02-04T09:58:12.017Z,68.18
2018-02-04T10:00:39.580Z,67.66
2018-02-04T10:03:07.120Z,67.94
2018-02-04T10:05:34.642Z,67.16
2018-02-04T10:08:02.193Z,66.54
2018-02-04T10:10:29.706Z,67.12
2018-02-04T10:12:57.306Z,66.55
2018-02-04T10:15:24.856Z,66.37
2018-02-04T10:17:52.360Z,66.20
2018-02-04T10:20:19.956Z,64.78
2018-02-04T10:22:47.515Z,65.14
2018-02-04T10:25:15.045Z,66.11
2018-02-04T10:27:42.556Z,65.61
2018-02-04T10:30:10.104Z,65.79
2018-02-04T10:32:37.753Z,65.94
2018-02-04T10:35:05.312Z,65.57
2018-02-04T10:37:32.840Z,65.87
2018-02-04T10:40:00.369Z,65.95
2018-02-04T10:42:27.904Z,65.78
2018-02-04T10:44:55.460Z,65.96
2018-02-04T10:47:23.021Z,65.82
2018-02-04T10:49:50.540Z,65.44
2018-02-04T10:52:18.037Z,65.27
2018-02-04T10:54:45.588Z,65.47
2018-02-04T10:57:13.084Z,64.93
2018-02-04T10:59:40.596Z,64.95
2018-02-04T11:02:08.255Z,64.79
2018-02-04T11:04:35.745Z,64.94
2018-02-04T11:07:03.266Z,64.22
2018-02-04T11:09:30.828Z,64.21
2018-02-04T11:11:58.356Z,63.72
2018-02-04T11:14:25.905Z,62.39
2018-02-04T11:16:53.445Z,62.15
2018-02-04T11:19:20.966Z,61.78
2018-02-04T11:21:48.477Z,62.27
2018-02-04T11:24:15.996Z,62.94
2018-02-04T11:26:43.513Z,63.30
2018-02-04T11:29:11.033Z,62.92
2018-02-04T11:31:38.549Z,62.63
2018-02-04T11:34:06.078Z,62.41
2018-02-04T11:36:33.605Z,62.40
2018-02-04T11:39:01.139Z,61.29
2018-02-04T11:41:28.658Z,60.40
2018-02-04T11:43:56.225Z,61.19
2018-02-04T11:46:23.754Z,61.19
2018-02-04T11:48:51.277Z,60.26
2018-02-04T11:51:18.815Z,60.85
2018-02-04T11:53:46.334Z,60.69
2018-02-04T11:56:13.861Z,61.35
2018-02-04T11:58:41.576Z,61.74
2018-02-04T12:01:09.089Z,61.88
2018-02-04T12:03:36.629Z,60.43
2018-02-04T12:06:04.182Z,59.17
2018-02-04T12:08:31.733Z,58.20
2018-02-04T12:10:59.281Z,58.96
2018-02-04T12:13:26.834Z,59.17
2018-02-04T12:15:54.405Z,59.49
2018-02-04T12:18:21.957Z,59.51
2018-02-04T12:20:49.493Z,59.38
2018-02-04T12:23:17.207Z,59.03
2018-02-04T12:25:44.734Z,58.25
2018-02-04T12:28:12.233Z,58.43
2018-02-04T12:30:39.769Z,58.63
2018-02-04T12:33:07.287Z,58.99
2018-02-04T12:35:34.814Z,58.44
2018-02-04T12:38:02.377Z,58.37
2018-02-04T12:40:29.899Z,59.48
2018-02-04T12:42:57.422Z,58.83
2018-02-04T12:45:25.049Z,57.70
2018-02-04T12:47:52.572Z,55.19
2018-02-04T12:50:20.153Z,54.87
2018-02-04T12:55:22.176Z,57.25
2018-02-04T12:57:49.694Z,58.17
2018-02-04T13:00:17.200Z,58.05
2018-02-04T13:02:44.762Z,57.00
2018-02-04T13:05:12.289Z,54.66
2018-02-04T13:07:39.817Z,54.78
2018-02-04T13:10:07.349Z,56.30
2018-02-04T13:12:35.076Z,56.93
2018-02-04T13:15:02.598Z,59.51
2018-02-04T13:17:30.106Z,61.35
2018-02-04T13:19:57.725Z,61.24
2018-02-04T13:22:25.273Z,62.53
2018-02-04T13:24:52.797Z,63.22
2018-02-04T13:27:20.354Z,63.38
2018-02-04T13:29:47.861Z,64.30
2018-02-04T13:32:15.385Z,64.61
2018-02-04T13:34:42.918Z,64.83
2018-02-04T13:37:10.658Z,64.95
2018-02-04T13:39:38.200Z,64.96
2018-02-04T13:42:05.732Z,65.22
2018-02-04T13:44:33.322Z,65.59
2018-02-04T13:47:00.845Z,65.34
2018-02-04T13:49:28.356Z,66.50
2018-02-04T13:51:55.882Z,67.42
2018-02-04T13:54:23.398Z,68.21
2018-02-04T13:56:50.958Z,69.20
2018-02-04T13:59:18.477Z,69.38
2018-02-04T14:01:45.970Z,69.67
2018-02-04T14:04:13.502Z,70.54
2018-02-04T14:06:41.048Z,71.41
2018-02-04T14:09:08.577Z,71.87
2018-02-04T14:11:36.125Z,72.29
2018-02-04T14:14:03.634Z,72.76
2018-02-04T14:16:31.150Z,72.70
2018-02-04T14:18:58.689Z,72.43
2018-02-04T14:21:26.189Z,73.06
2018-02-04T14:23:53.709Z,73.65
2018-02-04T14:26:21.254Z,73.70
2018-02-04T14:28:48.753Z,73.54
2018-02-04T14:31:16.285Z,73.49
2018-02-04T14:33:43.873Z,73.60
2018-02-04T14:36:11.385Z,73.50
2018-02-04T14:38:38.907Z,74.13
2018-02-04T14:41:06.482Z,74.52
2018-02-04T14:43:34.017Z,74.79
2018-02-04T14:46:01.545Z,75.18
2018-02-04T14:48:29.090Z,75.76
2018-02-04T14:50:56.598Z,76.05
2018-02-04T14:53:24.122Z,76.39
2018-02-04T14:55:51.657Z,76.85
2018-02-04T14:58:19.193Z,77.20
2018-02-04T15:00:46.705Z,77.79
2018-02-04T15:03:14.265Z,78.13
2018-02-04T15:05:41.811Z,78.84
2018-02-04T15:08:09.344Z,78.79
2018-02-04T15:10:36.888Z,79.08
2018-02-04T15:13:04.443Z,79.71
2018-02-04T15:15:31.973Z,79.56
2018-02-04T15:17:59.489Z,79.70
2018-02-04T15:20:27.262Z,80.13
2018-02-04T15:22:54.790Z,80.77
2018-02-04T15:25:22.325Z,81.45
2018-02-04T15:27:49.869Z,81.83
2018-02-04T15:30:17.397Z,81.50
2018-02-04T15:32:44.938Z,81.75
2018-02-04T15:35:12.700Z,81.98
2018-02-04T15:37:40.261Z,82.09
2018-02-04T15:40:07.766Z,82.24
2018-02-04T15:42:35.293Z,82.68
2018-02-04T15:45:02.873Z,83.32
2018-02-04T15:47:30.404Z,83.53
2018-02-04T15:49:57.909Z,83.48
2018-02-04T15:52:25.438Z,83.42
2018-02-04T15:54:52.955Z,83.91
2018-02-04T15:57:20.485Z,84.25
2018-02-04T15:59:48.059Z,84.30
2018-02-04T16:02:15.577Z,84.53
2018-02-04T16:04:43.100Z,84.49
2018-02-04T16:07:10.662Z,84.70
2018-02-04T16:09:38.213Z,84.71
2018-02-04T16:12:05.742Z,84.62
2018-02-04T16:14:33.301Z,85.05
2018-02-04T16:17:00.863Z,85.26
2018-02-04T16:19:28.417Z,85.14
2018-02-04T16:21:55.925Z,85.39
2018-02-04T16:24:23.458Z,85.95
2018-02-04T16:26:51.465Z,86.12
2018-02-04T16:29:19.076Z,85.86
2018-02-04T16:31:46.625Z,86.37
2018-02-04T16:34:14.148Z,86.34
2018-02-04T16:36:41.689Z,86.18
2018-02-04T16:39:09.397Z,86.21
2018-02-04T16:41:36.940Z,86.17
2018-02-04T16:44:04.509Z,85.73
2018-02-04T16:46:32.466Z,85.71
2018-02-04T16:49:00.077Z,85.80
2018-02-04T16:51:27.725Z,85.72
2018-02-04T16:53:55.232Z,86.00
2018-02-04T16:56:22.769Z,86.08
2018-02-04T16:58:50.323Z,86.14
2018-02-04T17:01:17.833Z,86.45
2018-02-04T17:03:45.492Z,86.61
2018-02-04T17:06:13.006Z,86.62
2018-02-04T17:08:40.515Z,86.74
2018-02-04T17:11:08.141Z,86.83
2018-02-04T17:13:35.673Z,86.90
2018-02-04T17:16:03.241Z,86.99
2018-02-04T17:18:30.745Z,86.88
2018-02-04T17:20:58.286Z,87.00
2018-02-04T17:23:25.858Z,86.97
2018-02-04T17:25:53.385Z,87.06
2018-02-04T17:28:20.935Z,87.00
2018-02-04T17:30:48.461Z,87.08
2018-02-04T17:33:15.974Z,87.08
2018-02-04T17:35:43.549Z,87.33
2018-02-04T17:38:11.064Z,87.52
2018-02-04T17:40:38.732Z,87.75
2018-02-04T17:43:06.346Z,87.93
2018-02-04T17:45:33.874Z,87.91
2018-02-04T17:48:01.416Z,87.94
2018-02-04T17:50:29.588Z,87.78
2018-02-04T17:52:57.116Z,87.78
2018-02-04T17:55:24.675Z,88.22
2018-02-04T17:57:52.187Z,88.18
2018-02-04T18:00:20.518Z,87.77
2018-02-04T18:02:48.081Z,87.93
2018-02-04T18:05:16.493Z,87.96
2018-02-04T18:07:44.042Z,88.06
2018-02-04T18:10:11.582Z,87.95
2018-02-04T18:12:39.112Z,87.76
2018-02-04T18:15:06.652Z,87.76
2018-02-04T18:17:34.207Z,88.12
2018-02-04T18:20:01.827Z,88.51
2018-02-04T18:22:29.390Z,88.27
2018-02-04T18:24:56.958Z,88.19
2018-02-04T18:27:24.702Z,88.20
2018-02-04T18:29:52.217Z,88.89
2018-02-04T18:32:19.727Z,88.83
2018-02-04T18:34:47.273Z,88.81
2018-02-04T18:37:14.802Z,88.96
2018-02-04T18:39:42.375Z,88.81
2018-02-04T18:42:09.917Z,88.75
2018-02-04T18:44:37.435Z,88.83
2018-02-04T18:47:04.952Z,88.92
2018-02-04T18:49:32.651Z,89.11
2018-02-04T18:52:00.209Z,89.44
2018-02-04T18:54:27.741Z,89.36
2018-02-04T18:56:55.307Z,89.45
2018-02-04T18:59:22.968Z,89.56
2018-02-04T19:01:50.532Z,89.60
2018-02-04T19:04:18.106Z,89.76
2018-02-04T19:06:45.610Z,90.42
2018-02-04T19:09:13.226Z,91.17
2018-02-04T19:11:40.801Z,91.59
2018-02-04T19:14:08.344Z,91.93
2018-02-04T19:16:35.928Z,92.11
2018-02-04T19:19:03.547Z,92.24
2018-02-04T19:21:31.114Z,92.38
2018-02-04T19:23:58.651Z,92.23
2018-02-04T19:26:26.180Z,92.12
2018-02-04T19:28:53.798Z,92.09
2018-02-04T19:31:21.360Z,91.79
2018-02-04T19:33:48.888Z,91.60
2018-02-04T19:36:16.431Z,91.32
2018-02-04T19:38:43.960Z,91.12
2018-02-04T19:41:11.673Z,90.66
2018-02-04T19:43:39.173Z,90.62
2018-02-04T19:46:06.697Z,90.46
2018-02-04T19:48:34.438Z,90.26
2018-02-04T19:51:02.036Z,90.11
2018-02-04T19:53:29.558Z,90.03
2018-02-04T19:55:57.081Z,89.88
2018-02-04T19:58:24.587Z,89.67
2018-02-04T20:00:52.111Z,89.41
2018-02-04T20:03:19.633Z,89.20
2018-02-04T20:05:47.214Z,89.09
2018-02-04T20:08:14.734Z,89.15
2018-02-04T20:10:42.237Z,88.78
2018-02-04T20:13:09.852Z,89.05
2018-02-04T20:15:37.356Z,88.65
2018-02-04T20:18:04.890Z,88.71
2018-02-04T20:20:32.429Z,88.64
2018-02-04T20:22:59.973Z,88.60
2018-02-04T20:25:27.539Z,88.41
2018-02-04T20:27:55.090Z,88.11
2018-02-04T20:30:22.698Z,88.14
2018-02-04T20:33:02.155Z,88.30
2018-02-04T20:35:29.664Z,87.96
2018-02-04T20:37:57.168Z,87.75
2018-02-04T20:40:24.891Z,88.07
2018-02-04T20:42:52.545Z,88.02
2018-02-04T20:45:20.099Z,87.93
2018-02-04T20:47:47.663Z,88.01
2018-02-04T20:50:15.236Z,87.92
2018-02-04T20:52:42.741Z,88.05
2018-02-04T20:55:10.290Z,88.00
2018-02-04T20:57:37.839Z,87.88
2018-02-04T21:00:05.362Z,88.00
2018-02-04T21:02:32.917Z,87.99
2018-02-04T21:05:00.569Z,87.87
2018-02-04T21:07:28.142Z,87.80
2018-02-04T21:09:55.668Z,87.97
2018-02-04T21:12:23.213Z,87.92
2018-02-04T21:14:50.716Z,87.91
2018-02-04T21:17:18.297Z,88.22
2018-02-04T21:19:45.859Z,88.43
2018-02-04T21:22:13.371Z,88.63
2018-02-04T21:24:40.943Z,88.96
2018-02-04T21:27:08.466Z,88.91
2018-02-04T21:29:36.005Z,88.88
2018-02-04T21:32:03.634Z,88.86
2018-02-04T21:34:31.161Z,89.03
2018-02-04T21:36:58.748Z,88.99
2018-02-04T21:39:26.311Z,88.95
2018-02-04T21:41:53.840Z,88.94
2018-02-04T21:44:21.360Z,88.77
2018-02-04T21:46:48.908Z,88.67
2018-02-04T21:49:16.484Z,88.72
2018-02-04T21:51:44.072Z,88.74
2018-02-04T21:54:11.600Z,88.92
2018-02-04T21:56:39.152Z,88.98
2018-02-04T21:59:06.652Z,89.01
2018-02-04T22:01:34.260Z,89.12
2018-02-04T22:04:02.025Z,89.24
2018-02-04T22:06:29.559Z,89.64
2018-02-04T22:08:57.092Z,89.61
2018-02-04T22:11:24.701Z,89.58
2018-02-04T22:13:52.209Z,89.78
2018-02-04T22:16:19.817Z,89.88
2018-02-04T22:18:47.349Z,89.81
2018-02-04T22:21:15.022Z,89.75
2018-02-04T22:23:42.524Z,89.69
2018-02-04T22:26:10.165Z,89.58
2018-02-04T22:28:37.742Z,89.56
2018-02-04T22:31:05.261Z,89.64
2018-02-04T22:33:32.794Z,89.61
2018-02-04T22:36:00.397Z,89.38
2018-02-04T22:38:27.960Z,89.30
2018-02-04T22:40:55.492Z,89.18
2018-02-04T22:43:23.048Z,88.87
2018-02-04T22:45:50.561Z,88.78
2018-02-04T22:48:18.089Z,88.76
2018-02-04T22:50:45.728Z,88.58
2018-02-04T22:53:13.245Z,88.50
2018-02-04T22:55:40.876Z,88.38
2018-02-04T22:58:08.421Z,88.24
2018-02-04T23:00:35.951Z,88.22
2018-02-04T23:03:03.503Z,88.11
2018-02-04T23:05:31.111Z,87.79
2018-02-04T23:07:58.637Z,87.68
2018-02-04T23:10:26.211Z,87.71
2018-02-04T23:12:53.778Z,87.64
2018-02-04T23:15:21.306Z,87.59
2018-02-04T23:17:48.847Z,87.62
2018-02-04T23:20:16.578Z,87.69
2018-02-04T23:22:44.142Z,87.71
2018-02-04T23:25:11.682Z,87.65
2018-02-04T23:27:39.360Z,87.58
2018-02-04T23:30:06.869Z,87.55
2018-02-04T23:32:34.393Z,87.59
2018-02-04T23:35:02.029Z,87.58
2018-02-04T23:37:29.557Z,87.74
2018-02-04T23:39:57.153Z,87.83
2018-02-04T23:42:24.709Z,88.05
2018-02-04T23:44:52.241Z,88.33
2018-02-04T23:47:19.782Z,88.94
2018-02-04T23:49:47.332Z,89.47
2018-02-04T23:52:14.845Z,89.98
2018-02-04T23:54:42.395Z,90.35
2018-02-04T23:57:09.905Z,90.28
2018-02-04T23:59:37.468Z,90.41
